Time;durP1;ratioP1;P1;durP2;ratioP2;P2;SDS_P1;SDS_P2;PMS_P1;PMS_P2;Temp;Humidity;BMP_temperature;BMP_pressure;BME280_temperature;BME280_humidity;BME280_pressure;Samples;Min_cycle;Max_cycle;Signal;HPM_P1;HPM_P2
2020/12/07 00:01:07;;;;;;;1.93;1.73;;;;;;;-9.21;67.74;101776.64;1741274;82;21198;-65
2020/12/07 00:03:35;;;;;;;4.10;2.40;;;;;;;-9.22;67.81;101783.23;1741097;82;21007;-65
2020/12/07 00:06:04;;;;;;;5.57;2.33;;;;;;;-9.24;67.90;101781.02;1741183;82;20955;-66
2020/12/07 00:08:32;;;;;;;2.17;1.73;;;;;;;-9.27;67.95;101774.05;1741211;82;21019;-66
2020/12/07 00:11:00;;;;;;;2.50;1.73;;;;;;;-9.27;67.97;101775.81;1741247;82;20969;-66
2020/12/07 00:13:28;;;;;;;5.47;1.60;;;;;;;-9.27;68.03;101772.74;1741258;81;21205;-66
2020/12/07 00:15:56;;;;;;;4.17;1.77;;;;;;;-9.28;68.06;101784.08;1741140;82;21018;-66
2020/12/07 00:18:24;;;;;;;1.67;1.57;;;;;;;-9.28;68.06;101783.22;1741232;82;21011;-65
2020/12/07 00:20:52;;;;;;;1.70;1.30;;;;;;;-9.30;68.09;101783.22;1734860;81;21072;-67
2020/12/07 00:23:20;;;;;;;2.93;1.93;;;;;;;-9.32;68.09;101777.11;1732378;82;20977;-65
2020/12/07 00:25:48;;;;;;;1.83;1.67;;;;;;;-9.32;68.14;101774.94;1732301;82;21205;-64
2020/12/07 00:28:16;;;;;;;0.70;0.70;;;;;;;-9.33;68.17;101769.25;1732236;82;20965;-65
2020/12/07 00:30:46;;;;;;;5.90;2.50;;;;;;;-9.36;68.18;101758.36;1732334;82;21017;-65
2020/12/07 00:33:13;;;;;;;2.87;2.37;;;;;;;-9.36;68.22;101765.77;1750064;80;20929;-65
2020/12/07 00:35:41;;;;;;;5.77;2.37;;;;;;;-9.39;68.30;101757.05;1760369;81;21002;-65
2020/12/07 00:38:09;;;;;;;1.77;1.57;;;;;;;-9.40;68.39;101764.04;1746567;82;21367;-64
2020/12/07 00:40:37;;;;;;;1.70;1.47;;;;;;;-9.41;68.44;101757.04;1769004;81;20977;-65
2020/12/07 00:43:05;;;;;;;7.30;3.97;;;;;;;-9.43;68.52;101760.10;1746536;82;21009;-65
2020/12/07 00:45:34;;;;;;;4.47;1.40;;;;;;;-9.44;68.52;101750.94;1769040;81;21007;-65
2020/12/07 00:48:02;;;;;;;2.97;2.17;;;;;;;-9.47;68.59;101747.00;1769050;81;21021;-65
2020/12/07 00:50:30;;;;;;;11.13;3.10;;;;;;;-9.47;68.66;101740.04;1753462;81;21219;-65
2020/12/07 00:52:58;;;;;;;3.20;2.60;;;;;;;-9.46;68.66;101742.21;1788624;80;20950;-65
2020/12/07 00:55:26;;;;;;;2.33;1.67;;;;;;;-9.48;68.67;101733.05;1764064;81;20999;-64
2020/12/07 00:57:54;;;;;;;4.87;2.13;;;;;;;-9.48;68.65;101738.73;1770717;81;21017;-64
2020/12/07 01:00:22;;;;;;;4.50;2.40;;;;;;;-9.48;68.68;101730.88;1770682;81;21240;-65
2020/12/07 01:02:50;;;;;;;3.93;2.93;;;;;;;-9.48;68.73;101735.66;1770658;81;21210;-65
2020/12/07 01:05:19;;;;;;;2.33;1.97;;;;;;;-9.50;68.77;101740.03;1770668;81;20942;-65
2020/12/07 01:07:47;;;;;;;1.90;1.80;;;;;;;-9.48;68.74;101734.80;1770764;81;20992;-66
2020/12/07 01:10:15;;;;;;;1.57;1.47;;;;;;;-9.47;68.72;101729.98;1770674;81;20937;-64
2020/12/07 01:12:43;;;;;;;0.90;0.90;;;;;;;-9.48;68.72;101737.42;1770723;81;21008;-64
2020/12/07 01:15:12;;;;;;;1.77;1.67;;;;;;;-9.49;68.72;101728.70;1770678;81;21376;-65
2020/12/07 01:17:41;;;;;;;3.30;2.00;;;;;;;-9.48;68.71;101730.42;1770602;81;21379;-66
2020/12/07 01:20:10;;;;;;;1.63;1.53;;;;;;;-9.47;68.74;101717.78;1740294;81;20997;-66
2020/12/07 01:22:39;;;;;;;1.33;1.33;;;;;;;-9.48;68.80;101717.33;1770664;81;21013;-66
2020/12/07 01:25:07;;;;;;;0.97;0.97;;;;;;;-9.47;68.80;101728.25;1770703;81;20965;-65
2020/12/07 01:27:37;;;;;;;1.77;1.67;;;;;;;-9.49;68.80;101723.45;1766356;81;22348;-65
2020/12/07 01:30:05;;;;;;;5.50;2.33;;;;;;;-9.51;68.82;101719.94;1770724;81;21021;-65
2020/12/07 01:32:34;;;;;;;5.13;2.90;;;;;;;-9.52;68.88;101721.25;1767783;81;20997;-65
2020/12/07 01:35:04;;;;;;;2.10;1.37;;;;;;;-9.51;68.93;101721.70;1760942;81;21021;-65
2020/12/07 01:37:32;;;;;;;2.10;2.00;;;;;;;-9.52;68.95;101721.25;1770984;79;20995;-65
2020/12/07 01:40:00;;;;;;;2.43;1.60;;;;;;;-9.54;69.01;101719.97;1770946;81;21205;-65
2020/12/07 01:42:28;;;;;;;5.40;2.63;;;;;;;-9.55;69.05;101717.77;1771070;81;21011;-65
2020/12/07 01:44:57;;;;;;;2.20;1.87;;;;;;;-9.56;69.08;101720.38;1771065;81;21007;-65
2020/12/07 01:47:27;;;;;;;4.37;3.13;;;;;;;-9.57;69.17;101710.80;1771113;81;20948;-64
2020/12/07 01:49:57;;;;;;;3.87;2.02;;;;;;;-9.58;69.30;101714.28;1767147;81;21150;-64
2020/12/07 01:52:25;;;;;;;3.07;2.37;;;;;;;-9.60;69.36;101719.52;1770989;81;21378;-64
2020/12/07 01:54:53;;;;;;;2.20;1.97;;;;;;;-9.59;69.44;101721.72;1740993;81;21019;-64
2020/12/07 01:57:22;;;;;;;1.60;1.50;;;;;;;-9.58;69.54;101718.20;1751579;79;21040;-65
2020/12/07 01:59:52;;;;;;;5.40;2.50;;;;;;;-9.57;69.57;101716.91;1790053;80;20957;-65
2020/12/07 02:02:19;;;;;;;5.90;1.63;;;;;;;-9.57;69.58;101712.97;1811063;79;20906;-65
2020/12/07 02:04:47;;;;;;;3.43;2.33;;;;;;;-9.57;69.60;101702.95;1759847;80;21342;-65
2020/12/07 02:07:18;;;;;;;1.87;1.77;;;;;;;-9.57;69.63;101708.18;1804601;79;20998;-65
2020/12/07 02:09:47;;;;;;;5.47;1.75;;;;;;;-9.58;69.68;101704.70;1790323;80;21008;-66
2020/12/07 02:12:16;;;;;;;1.20;0.93;;;;;;;-9.59;69.78;101695.09;1790065;80;21020;-65
2020/12/07 02:14:44;;;;;;;2.07;1.83;;;;;;;-9.59;69.82;101688.98;1811071;79;20997;-64
2020/12/07 02:17:12;;;;;;;2.63;2.30;;;;;;;-9.59;69.88;101685.06;1811058;79;21142;-66
2020/12/07 02:19:40;;;;;;;2.30;1.70;;;;;;;-9.60;69.94;101693.78;1789975;80;21016;-65
2020/12/07 02:22:07;;;;;;;1.57;1.30;;;;;;;-9.61;69.96;101704.70;1807652;79;20938;-66
2020/12/07 02:24:35;;;;;;;1.87;1.73;;;;;;;-9.61;70.01;101703.84;1796110;78;20999;-64
2020/12/07 02:27:05;;;;;;;4.67;2.50;;;;;;;-9.63;70.11;101711.69;1824152;78;21535;-65
2020/12/07 02:29:34;;;;;;;3.40;2.30;;;;;;;-9.65;70.17;101705.59;1796078;80;21339;-65
2020/12/07 02:32:16;;;;;;;2.03;1.63;;;;;;;-9.67;70.24;101716.47;1819023;78;21004;-65
2020/12/07 02:35:02;;;;;;;3.70;2.10;;;;;;;-9.62;70.27;101714.72;1845378;76;22716;-64
2020/12/07 02:37:32;;;;;;;2.93;2.17;;;;;;;-9.66;70.33;101719.98;1810799;79;20913;-65
2020/12/07 02:40:04;;;;;;;2.63;1.77;;;;;;;-9.68;70.33;101710.81;1815470;79;21352;-65
2020/12/07 02:42:33;;;;;;;5.90;3.13;;;;;;;-9.68;70.43;101708.61;1815208;79;20976;-64
2020/12/07 02:45:12;;;;;;;1.40;0.83;;;;;;;-9.69;70.46;101710.81;1815478;79;21514;-65
2020/12/07 02:47:42;;;;;;;3.57;2.00;;;;;;;-9.71;70.49;101711.27;1815422;79;21482;-65
2020/12/07 02:50:11;;;;;;;2.17;1.97;;;;;;;-9.73;70.50;101719.11;1815483;79;20913;-64
2020/12/07 02:52:40;;;;;;;3.30;1.90;;;;;;;-9.72;70.56;101721.28;1815386;79;21365;-64
2020/12/07 02:55:11;;;;;;;1.07;0.77;;;;;;;-9.73;70.65;101707.33;1783791;79;21118;-65
2020/12/07 02:57:40;;;;;;;1.40;1.30;;;;;;;-9.74;70.72;101709.09;1783305;80;20936;-65
2020/12/07 03:00:09;;;;;;;5.63;2.87;;;;;;;-9.76;70.78;101709.94;1751666;80;21000;-65
2020/12/07 03:02:39;;;;;;;2.67;2.00;;;;;;;-9.75;70.83;101711.25;1783387;80;20956;-64
2020/12/07 03:05:09;;;;;;;5.33;2.30;;;;;;;-9.75;70.92;101703.40;1782727;80;21609;-65
2020/12/07 03:07:38;;;;;;;1.90;1.50;;;;;;;-9.76;70.92;101706.88;1783172;80;21039;-65
2020/12/07 03:10:06;;;;;;;2.13;1.43;;;;;;;-9.74;70.95;101716.05;1783220;79;20972;-65
2020/12/07 03:12:35;;;;;;;4.57;2.40;;;;;;;-9.73;70.97;101712.56;1783199;79;21659;-65
2020/12/07 03:15:05;;;;;;;3.57;1.60;;;;;;;-9.72;70.97;101712.13;1783189;80;21026;-65
2020/12/07 03:17:34;;;;;;;4.23;1.27;;;;;;;-9.74;70.93;101695.99;1782920;80;21370;-65
2020/12/07 03:20:03;;;;;;;1.40;1.30;;;;;;;-9.76;70.93;101702.95;1783060;80;20996;-64
2020/12/07 03:22:31;;;;;;;3.50;1.87;;;;;;;-9.73;70.94;101716.49;1783251;80;21008;-65
2020/12/07 03:25:01;;;;;;;2.10;2.00;;;;;;;-9.72;70.93;101702.95;1783208;80;20928;-65
2020/12/07 03:27:30;;;;;;;4.53;2.43;;;;;;;-9.73;70.91;101708.64;1793668;78;20915;-64
2020/12/07 03:29:59;;;;;;;1.10;0.97;;;;;;;-9.75;70.92;101713.02;1825370;78;21186;-65
2020/12/07 03:32:28;;;;;;;1.30;1.07;;;;;;;-9.75;70.89;101719.55;1822712;78;21545;-66
2020/12/07 03:34:56;;;;;;;2.33;1.53;;;;;;;-9.76;70.90;101720.42;1832250;78;21031;-65
2020/12/07 03:37:25;;;;;;;1.93;1.50;;;;;;;-9.76;70.91;101725.20;1835882;78;21023;-65
2020/12/07 03:39:55;;;;;;;6.37;1.87;;;;;;;-9.75;70.96;101722.17;1835825;77;21572;-65
2020/12/07 03:42:24;;;;;;;2.40;2.20;;;;;;;-9.75;70.94;101720.86;1835936;78;21372;-64
2020/12/07 03:44:53;;;;;;;3.33;1.93;;;;;;;-9.76;70.91;101735.67;1835514;78;21450;-65
2020/12/07 03:47:22;;;;;;;5.10;1.93;;;;;;;-9.76;70.96;101719.11;1835342;78;21020;-65
2020/12/07 03:49:49;;;;;;;1.13;1.13;;;;;;;-9.77;70.97;101708.22;1835254;78;20979;-65
2020/12/07 03:52:19;;;;;;;2.73;2.30;;;;;;;-9.79;71.01;101710.83;1835443;77;20975;-65
2020/12/07 03:54:47;;;;;;;3.50;2.57;;;;;;;-9.80;71.09;101706.45;1835295;78;21186;-64
2020/12/07 03:57:17;;;;;;;3.73;1.83;;;;;;;-9.80;71.12;101723.92;1865217;76;20918;-64
2020/12/07 03:59:48;;;;;;;2.40;2.20;;;;;;;-9.81;71.20;101710.38;1869528;76;21565;-65
2020/12/07 04:02:16;;;;;;;1.83;1.73;;;;;;;-9.81;71.26;101720.85;1869624;76;20906;-65
2020/12/07 04:04:51;;;;;;;2.27;1.53;;;;;;;-9.81;71.25;101716.92;1869654;76;20946;-64
2020/12/07 04:07:17;;;;;;;4.33;2.00;;;;;;;-9.82;71.26;101723.91;1871099;76;21256;-66
2020/12/07 04:09:46;;;;;;;4.07;2.03;;;;;;;-9.81;71.27;101724.36;1869628;76;20965;-65
2020/12/07 04:12:14;;;;;;;2.73;1.67;;;;;;;-9.81;71.28;101722.16;1869610;76;21001;-65
2020/12/07 04:14:44;;;;;;;3.10;2.47;;;;;;;-9.78;71.27;101723.48;1869491;76;20980;-65
2020/12/07 04:17:12;;;;;;;2.57;2.10;;;;;;;-9.78;71.30;101711.25;1869665;76;21000;-65
2020/12/07 04:19:40;;;;;;;5.90;2.13;;;;;;;-9.79;71.27;101708.63;1869697;76;21409;-65
2020/12/07 04:22:07;;;;;;;2.33;1.83;;;;;;;-9.78;71.29;101706.46;1869547;76;21000;-63
2020/12/07 04:24:35;;;;;;;4.40;2.30;;;;;;;-9.80;71.34;101697.30;1869528;76;21005;-65
2020/12/07 04:27:03;;;;;;;1.63;1.53;;;;;;;-9.81;71.36;101696.88;1869472;76;20988;-65
2020/12/07 04:29:31;;;;;;;1.83;1.73;;;;;;;-9.84;71.45;101681.58;1869641;76;20925;-65
2020/12/07 04:32:00;;;;;;;3.90;1.40;;;;;;;-9.84;71.51;101692.05;1867634;76;21194;-65
2020/12/07 04:34:29;;;;;;;1.20;1.20;;;;;;;-9.87;71.54;101707.34;1764132;81;21028;-64
2020/12/07 04:36:57;;;;;;;6.13;2.23;;;;;;;-9.91;71.61;101705.60;1788144;80;20974;-65
2020/12/07 04:39:26;;;;;;;2.73;2.00;;;;;;;-9.92;71.67;101706.02;1762920;81;20993;-64
2020/12/07 04:41:55;;;;;;;3.03;2.07;;;;;;;-9.93;71.69;101707.36;1788147;80;21303;-65
2020/12/07 04:44:23;;;;;;;1.40;1.00;;;;;;;-9.96;71.77;101699.05;1735379;81;21395;-66
2020/12/07 04:46:50;;;;;;;2.40;1.70;;;;;;;-9.97;71.85;101696.02;1759411;80;21021;-67
2020/12/07 04:49:18;;;;;;;4.67;2.57;;;;;;;-9.97;71.88;101676.80;1788149;80;20997;-65
2020/12/07 04:51:46;;;;;;;2.37;1.73;;;;;;;-9.96;71.95;101681.17;1762779;81;21084;-66
2020/12/07 04:54:14;;;;;;;2.73;2.47;;;;;;;-9.97;71.98;101683.34;1788127;80;21023;-65
2020/12/07 04:56:42;;;;;;;1.90;1.80;;;;;;;-9.97;71.99;101701.25;1770890;80;21374;-65
2020/12/07 04:59:10;;;;;;;2.93;2.13;;;;;;;-9.98;71.97;101697.31;1760920;80;20993;-66
2020/12/07 05:01:38;;;;;;;1.10;1.10;;;;;;;-9.97;71.95;101696.02;1760912;81;20990;-65
2020/12/07 05:04:06;;;;;;;1.73;1.60;;;;;;;-9.95;71.91;101673.73;1760894;81;21001;-65
2020/12/07 05:06:34;;;;;;;1.83;1.73;;;;;;;-9.94;71.79;101674.19;1761072;81;20965;-66
2020/12/07 05:09:02;;;;;;;3.13;2.63;;;;;;;-9.96;71.78;101687.27;1761015;81;21448;-64
2020/12/07 05:11:30;;;;;;;2.20;2.00;;;;;;;-9.95;71.74;101681.59;1760989;81;20941;-67
2020/12/07 05:14:12;;;;;;;0.87;0.87;;;;;;;-9.95;71.73;101670.70;1760922;80;21041;-64
2020/12/07 05:16:39;;;;;;;2.50;1.43;;;;;;;-9.96;71.66;101666.33;1760818;81;21025;-65
2020/12/07 05:19:10;;;;;;;4.10;3.33;;;;;;;-9.96;71.62;101673.32;1766183;79;21030;-65
2020/12/07 05:21:38;;;;;;;1.85;1.17;;;;;;;-9.96;71.59;101687.27;1771456;81;21260;-64
2020/12/07 05:24:06;;;;;;;1.97;1.77;;;;;;;-9.95;71.51;101682.48;1802857;79;21021;-65
2020/12/07 05:26:34;;;;;;;8.73;3.33;;;;;;;-9.95;71.47;101682.48;1771205;81;21098;-66
2020/12/07 05:29:08;;;;;;;5.20;1.90;;;;;;;-9.93;71.41;101683.80;1771214;81;20885;-65
2020/12/07 05:31:35;;;;;;;1.87;1.77;;;;;;;-9.91;71.33;101659.80;1802913;79;21036;-65
2020/12/07 05:34:05;;;;;;;2.90;2.07;;;;;;;-9.89;71.21;101678.98;1764839;81;21201;-64
2020/12/07 05:36:32;;;;;;;0.87;0.87;;;;;;;-9.88;71.16;101683.33;1758420;81;21013;-65
2020/12/07 05:39:04;;;;;;;2.30;1.93;;;;;;;-9.86;71.04;101670.25;1730874;81;20988;-65
2020/12/07 05:41:32;;;;;;;1.80;1.70;;;;;;;-9.84;70.99;101668.49;1678744;85;21010;-65
2020/12/07 05:44:00;;;;;;;4.33;2.30;;;;;;;-9.84;70.89;101681.16;1678570;85;21042;-65
2020/12/07 05:46:29;;;;;;;1.20;1.10;;;;;;;-9.82;70.86;101678.10;1656018;85;21405;-66
2020/12/07 05:48:57;;;;;;;3.00;1.93;;;;;;;-9.81;70.85;101689.02;1678597;85;21045;-66
2020/12/07 05:51:26;;;;;;;4.37;2.53;;;;;;;-9.80;70.79;101684.20;1678674;85;21077;-64
2020/12/07 05:53:53;;;;;;;1.20;1.10;;;;;;;-9.79;70.78;101687.69;1678566;85;20986;-65
2020/12/07 05:56:21;;;;;;;1.60;1.50;;;;;;;-9.77;70.76;101695.98;1692084;84;21044;-66
2020/12/07 05:59:22;;;;;;;9.53;2.90;;;;;;;-9.72;70.71;101684.63;1706073;84;21227;-65
2020/12/07 06:01:50;;;;;;;2.83;2.37;;;;;;;-9.66;70.58;101694.66;1723560;83;20998;-65
2020/12/07 06:04:17;;;;;;;4.03;1.97;;;;;;;-9.60;70.42;101692.47;1695417;84;21595;-65
2020/12/07 06:06:47;;;;;;;3.87;2.77;;;;;;;-9.56;70.25;101683.72;1723558;83;21074;-65
2020/12/07 06:09:22;;;;;;;1.80;1.60;;;;;;;-9.52;70.25;101680.24;1672213;84;21053;-66
2020/12/07 06:12:13;;;;;;;4.60;3.03;;;;;;;-9.47;70.19;101665.80;1723733;83;21274;-65
2020/12/07 06:14:42;;;;;;;10.10;1.93;;;;;;;-9.41;70.13;101650.09;1707123;84;20974;-65
2020/12/07 06:17:24;;;;;;;2.77;1.70;;;;;;;-9.33;69.82;101667.08;1698790;84;21047;-66
2020/12/07 06:19:53;;;;;;;4.08;2.75;;;;;;;-9.26;69.73;101664.87;1727273;83;21036;-66
2020/12/07 06:22:21;;;;;;;2.47;2.17;;;;;;;-9.22;69.57;101664.86;1727204;83;20977;-68
2020/12/07 06:24:52;;;;;;;2.07;1.80;;;;;;;-9.20;69.46;101668.80;1727234;83;21602;-67
2020/12/07 06:27:20;;;;;;;4.73;2.37;;;;;;;-9.20;69.42;101670.10;1727120;81;21032;-68
2020/12/07 06:30:05;;;;;;;2.33;1.50;;;;;;;-9.16;69.32;101660.03;1727168;83;21136;-67
2020/12/07 06:32:51;;;;;;;2.73;2.17;;;;;;;-9.14;69.26;101669.20;1726665;83;21192;-66
2020/12/07 06:35:20;;;;;;;3.70;3.27;;;;;;;-9.10;69.17;101666.58;1703848;83;20966;-65
2020/12/07 06:37:50;;;;;;;5.23;1.83;;;;;;;-9.05;68.96;101671.78;1705558;82;21295;-68
2020/12/07 06:40:21;;;;;;;5.73;2.83;;;;;;;-9.01;68.90;101665.22;1766218;81;20981;-67
2020/12/07 06:42:49;;;;;;;5.50;2.40;;;;;;;-8.95;68.77;101667.38;1778996;80;20984;-66
2020/12/07 06:45:32;;;;;;;1.87;1.77;;;;;;;-8.92;68.64;101677.41;1778967;80;20988;-66
2020/12/07 06:48:11;;;;;;;3.40;2.27;;;;;;;-8.87;68.50;101665.57;1779168;80;21497;-66
2020/12/07 06:50:40;;;;;;;5.40;2.23;;;;;;;-8.78;68.47;101670.80;1778835;80;21200;-67
2020/12/07 06:55:56;;;;;;;5.67;2.77;;;;;;;-8.62;68.11;101654.08;1774646;80;21555;-65
2020/12/07 06:58:37;;;;;;;1.63;1.53;;;;;;;-8.49;67.95;101659.25;1764593;81;21080;-66
2020/12/07 07:01:13;;;;;;;4.27;2.17;;;;;;;-8.41;67.75;101645.58;1646703;86;21745;-67
2020/12/07 07:03:53;;;;;;;2.77;2.47;;;;;;;-8.31;67.51;101656.89;1691214;84;21215;-66
2020/12/07 07:06:23;;;;;;;4.20;2.93;;;;;;;-8.23;67.26;101661.20;1674104;85;21089;-67
2020/12/07 07:08:53;;;;;;;1.63;1.53;;;;;;;-8.13;66.92;101652.80;1691459;84;21006;-66
2020/12/07 07:11:21;;;;;;;5.60;3.10;;;;;;;-8.04;66.67;101652.74;1674169;85;21229;-67
2020/12/07 07:13:51;;;;;;;10.53;2.37;;;;;;;-7.93;66.43;101649.12;1691369;84;21677;-67
2020/12/07 07:16:19;;;;;;;8.03;4.23;;;;;;;-7.83;65.95;101646.39;1673949;85;21719;-66
2020/12/07 07:18:47;;;;;;;7.27;4.27;;;;;;;-7.73;65.66;101644.56;1690876;84;21093;-67
2020/12/07 07:21:15;;;;;;;3.10;1.97;;;;;;;-7.62;65.45;101642.28;1673461;85;21266;-66
2020/12/07 07:23:44;;;;;;;2.23;2.03;;;;;;;-7.54;64.92;101649.19;1691048;84;21168;-65
2020/12/07 07:26:20;;;;;;;8.23;3.33;;;;;;;-7.44;64.96;101628.92;1630482;85;21052;-67
2020/12/07 07:28:46;;;;;;;7.33;2.93;;;;;;;-7.32;64.57;101659.00;1699078;84;21205;-67
2020/12/07 07:31:15;;;;;;;7.50;3.17;;;;;;;-7.23;63.89;101651.91;1694500;84;21028;-67
2020/12/07 07:33:43;;;;;;;4.17;3.37;;;;;;;-7.14;63.61;101647.39;1695975;84;21131;-65
2020/12/07 07:36:23;;;;;;;4.90;3.20;;;;;;;-7.03;63.37;101643.31;1695563;82;21188;-67
2020/12/07 07:38:58;;;;;;;9.37;4.13;;;;;;;-6.89;62.79;101647.08;1829268;76;27713;-68
2020/12/07 07:41:27;;;;;;;5.83;2.73;;;;;;;-6.83;62.66;101635.18;1815202;79;20980;-67
2020/12/07 07:43:55;;;;;;;2.70;1.60;;;;;;;-6.69;61.89;101642.42;1814876;79;21199;-68
2020/12/07 07:46:23;;;;;;;5.53;2.57;;;;;;;-6.58;61.31;101646.67;1815224;78;21053;-69
2020/12/07 07:49:20;;;;;;;2.43;2.03;;;;;;;-6.53;60.84;101637.81;1815104;79;21036;-67
2020/12/07 08:16:18;;;;;;;2.80;1.87;;;;;;;-5.50;57.20;101589.47;1760438;81;21200;-66
2020/12/07 08:18:59;;;;;;;3.93;2.77;;;;;;;-5.42;56.58;101569.97;1835948;76;22314;-66
2020/12/07 08:21:32;;;;;;;3.07;2.40;;;;;;;-5.36;56.85;101583.47;1798995;79;20957;-65
2020/12/07 08:24:10;;;;;;;4.50;3.07;;;;;;;-5.18;56.61;101578.25;1798808;79;21491;-66
2020/12/07 08:26:44;;;;;;;3.47;2.20;;;;;;;-5.08;55.90;101586.81;1805075;79;21029;-64
2020/12/07 08:29:12;;;;;;;3.87;2.33;;;;;;;-4.98;55.77;101570.75;1804770;79;20949;-67
2020/12/07 08:51:49;;;;;;;4.97;3.07;;;;;;;-3.91;52.52;101543.04;1702447;82;21567;-67
2020/12/07 08:54:16;;;;;;;8.73;3.30;;;;;;;-3.80;51.76;101535.70;1694916;84;21002;-66
2020/12/07 08:56:49;;;;;;;3.20;2.20;;;;;;;-3.82;50.76;101542.81;1698689;83;21290;-71
2020/12/07 08:59:17;;;;;;;4.60;2.90;;;;;;;-3.91;50.92;101541.29;1709369;83;21041;-74
2020/12/07 09:01:45;;;;;;;3.63;2.53;;;;;;;-3.90;51.08;101541.68;1717009;83;21014;-75
2020/12/07 09:04:13;;;;;;;4.20;2.73;;;;;;;-3.88;51.30;101546.50;1719382;82;21017;-72
2020/12/07 09:06:41;;;;;;;5.60;2.77;;;;;;;-3.84;51.10;101550.78;1739267;82;21613;-73
2020/12/07 09:09:09;;;;;;;4.53;2.60;;;;;;;-3.77;51.28;101553.23;1693351;83;21281;-74
2020/12/07 09:11:37;;;;;;;9.77;3.17;;;;;;;-3.75;50.95;101539.52;1761578;80;20999;-74
2020/12/07 09:14:06;;;;;;;6.83;2.63;;;;;;;-3.74;51.03;101545.23;1770055;80;21583;-75
2020/12/07 09:16:38;;;;;;;4.90;2.13;;;;;;;-3.70;51.08;101562.30;1742348;81;21055;-74
2020/12/07 09:19:09;;;;;;;5.43;2.77;;;;;;;-3.69;51.04;101546.83;1754623;80;21622;-73
2020/12/07 09:21:37;;;;;;;12.10;2.73;;;;;;;-3.60;51.39;101548.35;1788574;79;21370;-69
2020/12/07 09:24:08;;;;;;;5.53;3.17;;;;;;;-3.49;50.94;101555.98;1790530;79;20971;-66
2020/12/07 09:26:37;;;;;;;5.43;3.17;;;;;;;-3.46;50.75;101540.03;1778703;80;21010;-68
2020/12/07 09:29:06;;;;;;;3.33;2.60;;;;;;;-3.37;50.85;101532.28;1780468;80;21064;-66
2020/12/07 09:31:34;;;;;;;4.23;2.27;;;;;;;-3.27;50.42;101533.28;1776861;80;21537;-65
2020/12/07 09:34:02;;;;;;;5.07;2.87;;;;;;;-3.28;49.96;101547.88;1749244;80;21445;-68
2020/12/07 09:36:30;;;;;;;4.70;2.50;;;;;;;-3.38;49.80;101549.05;1761821;80;21034;-68
2020/12/07 09:38:57;;;;;;;5.27;2.60;;;;;;;-3.44;50.05;101536.41;1760140;81;21292;-67
2020/12/07 09:41:25;;;;;;;5.60;3.20;;;;;;;-3.41;50.11;101538.58;1762910;80;21009;-67
2020/12/07 09:43:53;;;;;;;5.80;2.60;;;;;;;-3.33;50.16;101542.73;1759861;80;21508;-67
2020/12/07 09:46:22;;;;;;;4.70;2.73;;;;;;;-3.27;49.79;101541.22;1749170;80;21205;-68
2020/12/07 09:48:49;;;;;;;6.40;2.37;;;;;;;-3.26;49.43;101536.78;1779608;80;20945;-68
2020/12/07 09:51:17;;;;;;;7.33;3.13;;;;;;;-3.31;49.17;101533.41;1762885;80;21050;-74
2020/12/07 09:53:45;;;;;;;3.60;2.67;;;;;;;-3.35;49.46;101531.31;1781758;80;21083;-75
2020/12/07 09:56:15;;;;;;;11.70;3.47;;;;;;;-3.31;49.74;101526.80;1780959;80;21155;-73
2020/12/07 09:58:43;;;;;;;4.27;2.97;;;;;;;-3.29;49.64;101515.73;1781577;80;22123;-75
2020/12/07 10:01:11;;;;;;;6.20;3.00;;;;;;;-3.24;49.37;101516.44;1781480;80;20984;-76
2020/12/07 10:03:39;;;;;;;5.37;3.33;;;;;;;-3.20;49.64;101516.77;1781658;79;20985;-76
2020/12/07 10:06:08;;;;;;;3.60;2.60;;;;;;;-3.11;49.29;101523.09;1781384;80;21005;-72
2020/12/07 10:08:36;;;;;;;4.17;2.50;;;;;;;-3.11;48.95;101520.92;1780808;80;20980;-76
2020/12/07 10:11:05;;;;;;;5.53;3.33;;;;;;;-3.14;49.13;101523.19;1781831;80;21418;-74
2020/12/07 10:13:33;;;;;;;4.23;2.73;;;;;;;-3.13;48.84;101520.96;1781509;80;21040;-77
2020/12/07 10:16:00;;;;;;;4.20;2.07;;;;;;;-3.16;48.90;101523.70;1783516;80;21304;-77
2020/12/07 10:18:28;;;;;;;4.17;2.20;;;;;;;-3.17;48.90;101516.69;1776236;80;20934;-75
2020/12/07 10:20:56;;;;;;;6.03;3.10;;;;;;;-3.15;49.10;101519.26;1734224;82;21730;-74
2020/12/07 10:23:24;;;;;;;5.30;3.23;;;;;;;-3.10;48.95;101518.66;1734203;82;22297;-76
2020/12/07 10:25:52;;;;;;;5.40;2.97;;;;;;;-3.09;49.04;101527.88;1745593;82;20959;-75
2020/12/07 10:28:22;;;;;;;5.73;2.63;;;;;;;-3.02;49.00;101525.06;1746982;82;20996;-76
2020/12/07 10:30:50;;;;;;;5.30;2.50;;;;;;;-2.95;49.13;101528.78;1746808;82;21441;-78
2020/12/07 10:33:17;;;;;;;5.20;2.70;;;;;;;-2.86;49.00;101534.25;1746811;82;21054;-79
2020/12/07 10:35:45;;;;;;;4.37;3.03;;;;;;;-2.83;48.64;101518.27;1744923;82;21163;-76
2020/12/07 10:38:13;;;;;;;7.27;2.83;;;;;;;-2.76;48.76;101510.98;1746655;82;21086;-77
2020/12/07 10:40:40;;;;;;;7.20;3.13;;;;;;;-2.68;48.70;101500.55;1746511;82;21003;-77
2020/12/07 10:43:09;;;;;;;4.13;3.33;;;;;;;-2.61;48.48;101512.27;1746554;82;21289;-78
2020/12/07 10:45:37;;;;;;;6.60;2.93;;;;;;;-2.61;48.24;101497.24;1739120;82;21015;-79
2020/12/07 10:48:05;;;;;;;5.57;2.73;;;;;;;-2.58;48.14;101509.06;1739453;82;22518;-78
2020/12/07 10:50:33;;;;;;;6.63;4.23;;;;;;;-2.54;48.36;101494.80;1739320;82;21093;-80
2020/12/07 10:53:01;;;;;;;8.17;3.10;;;;;;;-2.44;48.46;101492.72;1744316;82;21028;-83
2020/12/07 10:55:30;;;;;;;1.90;1.80;;;;;;;-2.30;48.23;101496.22;1734973;82;21491;-85
2020/12/07 10:57:58;;;;;;;5.10;3.67;;;;;;;-2.24;47.75;101493.34;1720828;83;20958;-81
2020/12/07 11:00:26;;;;;;;6.10;3.57;;;;;;;-2.24;47.65;101484.54;1711857;83;21324;-77
2020/12/07 11:02:55;;;;;;;5.50;3.00;;;;;;;-2.28;47.36;101474.51;1697516;83;21027;-78
2020/12/07 11:05:22;;;;;;;5.07;2.87;;;;;;;-2.33;47.37;101472.00;1685942;85;21282;-77
2020/12/07 11:07:53;;;;;;;3.47;2.70;;;;;;;-2.39;47.50;101472.23;1686062;84;21497;-78
2020/12/07 11:10:21;;;;;;;5.57;2.37;;;;;;;-2.39;47.82;101478.86;1686015;84;21032;-79
2020/12/07 11:12:58;;;;;;;3.50;2.37;;;;;;;-2.37;47.53;101492.91;1712376;83;21210;-79
2020/12/07 11:15:29;;;;;;;4.50;2.67;;;;;;;-2.36;47.75;101495.09;1704185;84;20993;-77
2020/12/07 11:17:57;;;;;;;3.87;2.23;;;;;;;-2.34;47.62;101499.44;1703952;83;21025;-78
2020/12/07 11:20:25;;;;;;;6.43;2.97;;;;;;;-2.34;47.74;101502.52;1704004;84;21044;-78
2020/12/07 11:22:53;;;;;;;9.13;4.17;;;;;;;-2.31;47.77;101501.09;1704778;83;21461;-79
2020/12/07 11:25:21;;;;;;;5.33;3.00;;;;;;;-2.32;47.87;101513.49;1704490;84;21034;-80
2020/12/07 11:27:50;;;;;;;6.27;3.13;;;;;;;-2.31;47.94;101491.36;1704077;84;21004;-83
2020/12/07 11:30:17;;;;;;;4.63;2.90;;;;;;;-2.23;47.94;101496.84;1704380;84;21612;-80
2020/12/07 11:32:45;;;;;;;5.00;2.67;;;;;;;-2.19;48.06;101515.25;1703794;84;21028;-78
2020/12/07 11:35:13;;;;;;;6.17;2.60;;;;;;;-2.15;47.75;101512.03;1704132;84;21608;-81
2020/12/07 11:37:42;;;;;;;2.87;2.60;;;;;;;-2.15;47.75;101526.61;1704125;84;21501;-78
2020/12/07 11:40:26;;;;;;;3.53;2.60;;;;;;;-2.12;47.65;101519.42;1703589;83;21049;-81
2020/12/07 11:42:52;;;;;;;7.90;2.87;;;;;;;-2.12;47.68;101526.05;1704314;84;21036;-79
2020/12/07 11:45:15;;;;;;;6.87;3.13;;;;;;;-2.04;47.86;101523.58;1709841;83;20968;-79
2020/12/07 11:47:43;;;;;;;5.17;2.73;;;;;;;-1.97;48.00;101521.12;1780905;80;21013;-80
2020/12/07 11:50:11;;;;;;;11.57;3.93;;;;;;;-1.85;47.84;101519.83;1781600;80;21362;-80
2020/12/07 11:52:39;;;;;;;11.10;3.73;;;;;;;-1.76;47.56;101522.14;1784325;80;20996;-79
2020/12/07 11:55:06;;;;;;;13.47;4.37;;;;;;;-1.74;47.14;101517.17;1784409;80;21004;-80
2020/12/07 11:57:35;;;;;;;12.87;4.53;;;;;;;-1.53;46.62;101528.78;1784459;80;21037;-79
2020/12/07 12:00:04;;;;;;;9.27;4.00;;;;;;;-1.58;46.65;101528.08;1784245;80;21078;-79
2020/12/07 12:02:32;;;;;;;8.87;3.47;;;;;;;-1.42;46.77;101535.48;1783987;80;21662;-80
2020/12/07 12:05:00;;;;;;;8.67;3.60;;;;;;;-1.16;46.41;101531.84;1784560;80;20943;-80
2020/12/07 12:07:31;;;;;;;7.57;3.10;;;;;;;-1.02;46.03;101524.20;1784552;80;21568;-79
2020/12/07 12:10:04;;;;;;;10.03;3.83;;;;;;;-0.85;46.00;101520.00;1783957;80;21161;-80
2020/12/07 12:12:36;;;;;;;7.23;3.20;;;;;;;-0.77;45.55;101517.44;1784570;80;21006;-82
2020/12/07 12:15:04;;;;;;;9.80;3.77;;;;;;;-0.82;45.31;101514.10;1784456;80;21642;-75
2020/12/07 12:17:32;;;;;;;9.97;3.70;;;;;;;-0.94;45.04;101516.39;1784388;80;20939;-80
2020/12/07 12:20:01;;;;;;;7.53;3.63;;;;;;;-1.08;45.36;101529.77;1784203;80;20995;-78
2020/12/07 12:22:29;;;;;;;8.27;3.37;;;;;;;-1.15;45.07;101525.15;1784352;80;21505;-78